地図

経路データ

SID SEASON NUMBER BASIN SUBBASIN NAME ISO_TIME NATURE LAT LON WMO_WIND WMO_PRES WMO_AGENCY TRACK_TYPE DIST2LAND LANDFALL IFLAG USA_AGENCY USA_ATCF_ID USA_LAT USA_LON USA_RECORD USA_STATUS USA_WIND USA_PRES USA_SSHS USA_R34_NE USA_R34_SE USA_R34_SW USA_R34_NW USA_R50_NE USA_R50_SE USA_R50_SW USA_R50_NW USA_R64_NE USA_R64_SE USA_R64_SW USA_R64_NW USA_POCI USA_ROCI USA_RMW USA_EYE TOKYO_LAT TOKYO_LON TOKYO_GRADE TOKYO_WIND TOKYO_PRES TOKYO_R50_DIR TOKYO_R50_LONG TOKYO_R50_SHORT TOKYO_R30_DIR TOKYO_R30_LONG TOKYO_R30_SHORT TOKYO_LAND CMA_LAT CMA_LON CMA_CAT CMA_WIND CMA_PRES HKO_LAT HKO_LON HKO_CAT HKO_WIND HKO_PRES NEWDELHI_LAT NEWDELHI_LON NEWDELHI_GRADE NEWDELHI_WIND NEWDELHI_PRES NEWDELHI_CI NEWDELHI_DP NEWDELHI_POCI REUNION_LAT REUNION_LON REUNION_TYPE REUNION_WIND REUNION_PRES REUNION_TNUM REUNION_CI REUNION_RMW REUNION_R34_NE REUNION_R34_SE REUNION_R34_SW REUNION_R34_NW REUNION_R50_NE REUNION_R50_SE REUNION_R50_SW REUNION_R50_NW REUNION_R64_NE REUNION_R64_SE REUNION_R64_SW REUNION_R64_NW BOM_LAT BOM_LON BOM_TYPE BOM_WIND BOM_PRES BOM_TNUM BOM_CI BOM_RMW BOM_R34_NE BOM_R34_SE BOM_R34_SW BOM_R34_NW BOM_R50_NE BOM_R50_SE BOM_R50_SW BOM_R50_NW BOM_R64_NE BOM_R64_SE BOM_R64_SW BOM_R64_NW BOM_ROCI BOM_POCI BOM_EYE BOM_POS_METHOD BOM_PRES_METHOD NADI_LAT NADI_LON NADI_CAT NADI_WIND NADI_PRES WELLINGTON_LAT WELLINGTON_LON WELLINGTON_WIND WELLINGTON_PRES DS824_LAT DS824_LON DS824_STAGE DS824_WIND DS824_PRES TD9636_LAT TD9636_LON TD9636_STAGE TD9636_WIND TD9636_PRES TD9635_LAT TD9635_LON TD9635_WIND TD9635_PRES TD9635_ROCI NEUMANN_LAT NEUMANN_LON NEUMANN_CLASS NEUMANN_WIND NEUMANN_PRES MLC_LAT MLC_LON MLC_CLASS MLC_WIND MLC_PRES USA_GUST BOM_GUST BOM_GUST_PER REUNION_GUST REUNION_GUST_PER USA_SEAHGT USA_SEARAD_NE USA_SEARAD_SE USA_SEARAD_SW USA_SEARAD_NW STORM_SPEED STORM_DIR
1876231N14303 1876 13 NA NA NOT_NAMED 1876-08-17 12:00:00 TS 13.6000 -57.5000 main 500 468 _____________O -1 13.6000 -57.5000 TS 40 10 287
1876231N14303 1876 13 NA NA NOT_NAMED 1876-08-17 15:00:00 TS 13.7502 -57.9999 main 476 449 _____________P -1 13.7502 -57.9999 TS 42 10 287
1876231N14303 1876 13 NA NA NOT_NAMED 1876-08-17 18:00:00 TS 13.9000 -58.5000 main 449 428 _____________O -1 13.9000 -58.5000 TS 45 10 287
1876231N14303 1876 13 NA NA NOT_NAMED 1876-08-17 21:00:00 TS 14.0499 -59.0001 main 428 423 _____________P -1 14.0499 -59.0001 TS 47 10 287
1876231N14303 1876 13 NA NA NOT_NAMED 1876-08-18 00:00:00 TS 14.2000 -59.5000 main 424 416 _____________O -1 14.2000 -59.5000 TS 50 10 287
1876231N14303 1876 13 NA CS NOT_NAMED 1876-08-18 03:00:00 TS 14.3499 -60.0001 main 417 417 _____________P -1 14.3499 -60.0001 TS 52 10 287
1876231N14303 1876 13 NA CS NOT_NAMED 1876-08-18 06:00:00 TS 14.5000 -60.5000 main 428 426 _____________O -1 14.5000 -60.5000 TS 55 10 287
1876231N14303 1876 13 NA CS NOT_NAMED 1876-08-18 09:00:00 TS 14.6499 -61.0001 main 436 436 _____________P -1 14.6499 -61.0001 TS 55 10 287
1876231N14303 1876 13 NA CS NOT_NAMED 1876-08-18 12:00:00 TS 14.8000 -61.5000 main 459 459 _____________O -1 14.8000 -61.5000 TS 55 10 287
1876231N14303 1876 13 NA CS NOT_NAMED 1876-08-18 15:00:00 TS 14.9499 -62.0001 main 470 470 _____________P -1 14.9499 -62.0001 TS 55 10 287
1876231N14303 1876 13 NA CS NOT_NAMED 1876-08-18 18:00:00 TS 15.1000 -62.5000 main 478 432 _____________O -1 15.1000 -62.5000 TS 55 10 287
1876231N14303 1876 13 NA CS NOT_NAMED 1876-08-18 21:00:00 TS 15.2499 -63.0001 main 432 380 _____________P -1 15.2499 -63.0001 TS 55 10 287
1876231N14303 1876 13 NA CS NOT_NAMED 1876-08-19 00:00:00 TS 15.4000 -63.5000 main 380 339 _____________O -1 15.4000 -63.5000 TS 55 10 288
1876231N14303 1876 13 NA CS NOT_NAMED 1876-08-19 03:00:00 TS 15.5574 -64.0000 main 329 292 _____________P -1 15.5574 -64.0000 TS 55 10 287
1876231N14303 1876 13 NA CS NOT_NAMED 1876-08-19 06:00:00 TS 15.7000 -64.5000 main 292 260 _____________O -1 15.7000 -64.5000 TS 55 10 284
1876231N14303 1876 13 NA CS NOT_NAMED 1876-08-19 09:00:00 TS 15.7924 -65.0002 main 260 235 _____________P -1 15.7924 -65.0002 TS 50 10 282
1876231N14303 1876 13 NA CS NOT_NAMED 1876-08-19 12:00:00 TS 15.9000 -65.5000 main 235 202 _____________O -1 15.9000 -65.5000 TS 45 10 287
1876231N14303 1876 13 NA CS NOT_NAMED 1876-08-19 15:00:00 TS 16.0849 -66.0000 main 202 180 _____________P -1 16.0849 -66.0000 TS 45 10 293
1876231N14303 1876 13 NA CS NOT_NAMED 1876-08-19 18:00:00 TS 16.3000 -66.5000 main 181 156 _____________O -1 16.3000 -66.5000 TS 45 10 293
1876231N14303 1876 13 NA CS NOT_NAMED 1876-08-19 21:00:00 TS 16.4999 -67.0001 main 157 135 _____________P -1 16.4999 -67.0001 TS 45 10 293
1876231N14303 1876 13 NA CS NOT_NAMED 1876-08-20 00:00:00 TS 16.7000 -67.5000 main 138 130 _____________O -1 16.7000 -67.5000 TS 45 10 293
1876231N14303 1876 13 NA CS NOT_NAMED 1876-08-20 03:00:00 TS 16.8999 -68.0001 main 140 123 _____________P -1 16.8999 -68.0001 TS 40 10 293
1876231N14303 1876 13 NA CS NOT_NAMED 1876-08-20 06:00:00 TS 17.1000 -68.5000 main 123 101 _____________O -1 17.1000 -68.5000 TS 35 10 293
1876231N14303 1876 13 NA CS NOT_NAMED 1876-08-20 09:00:00 TS 17.2999 -69.0076 main 102 94 _____________P -1 17.2999 -69.0076 TS 35 10 293
1876231N14303 1876 13 NA CS NOT_NAMED 1876-08-20 12:00:00 TS 17.5000 -69.5000 main 101 64 _____________O -1 17.5000 -69.5000 TS 35 10 294
1876231N14303 1876 13 NA CS NOT_NAMED 1876-08-20 15:00:00 TS 17.6999 -69.9651 main 59 33 _____________P -1 17.6999 -69.9651 TS 35 9 295
1876231N14303 1876 13 NA CS NOT_NAMED 1876-08-20 18:00:00 TS 17.9000 -70.4000 main 33 22 _____________O -1 17.9000 -70.4000 TS 35 9 297
1876231N14303 1876 13 NA CS NOT_NAMED 1876-08-20 21:00:00 TS 18.0999 -70.8076 main 24 0 _____________P -1 18.0999 -70.8076 TS 32 9 298
1876231N14303 1876 13 NA NA NOT_NAMED 1876-08-21 00:00:00 TS 18.3000 -71.2000 main 0 0 _____________O -1 18.3000 -71.2000 TD 30 9 298
1876231N14303 1876 13 NA NA NOT_NAMED 1876-08-21 03:00:00 TS 18.4999 -71.6001 main 0 0 _____________P -1 18.4999 -71.6001 TD 30 9 298
1876231N14303 1876 13 NA NA NOT_NAMED 1876-08-21 06:00:00 TS 18.7000 -72.0000 main 0 0 _____________O -1 18.7000 -72.0000 TD 30 9 297
1876231N14303 1876 13 NA NA NOT_NAMED 1876-08-21 09:00:00 TS 18.8925 -72.4076 main 0 0 _____________P -1 18.8925 -72.4076 TD 30 9 298
1876231N14303 1876 13 NA CS NOT_NAMED 1876-08-21 12:00:00 TS 19.1000 -72.8000 main 10 10 _____________O -1 19.1000 -72.8000 TD 30 8 302
1876231N14303 1876 13 NA CS NOT_NAMED 1876-08-21 15:00:00 TS 19.3424 -73.1576 main 33 0 _____________P -1 19.3424 -73.1576 TD 30 8 307
1876231N14303 1876 13 NA CS NOT_NAMED 1876-08-21 18:00:00 TS 19.6000 -73.5000 main 10 10 _____________O -1 19.6000 -73.5000 TD 30 8 308
1876231N14303 1876 13 NA CS NOT_NAMED 1876-08-21 21:00:00 TS 19.8499 -73.8501 main 43 10 _____________P -1 19.8499 -73.8501 TD 32 8 307
1876231N14303 1876 13 NA NA NOT_NAMED 1876-08-22 00:00:00 TS 20.1000 -74.2000 main 10 0 _____________O -1 20.1000 -74.2000 TS 35 8 307
1876231N14303 1876 13 NA NA NOT_NAMED 1876-08-22 03:00:00 TS 20.3575 -74.5575 main 0 0 _____________P -1 20.3575 -74.5575 TS 35 8 307
1876231N14303 1876 13 NA NA NOT_NAMED 1876-08-22 06:00:00 TS 20.6000 -74.9000 main 0 0 _____________O -1 20.6000 -74.9000 TS 35 8 306
1876231N14303 1876 13 NA NA NOT_NAMED 1876-08-22 09:00:00 TS 20.8074 -75.2151 main 22 10 _____________P -1 20.8074 -75.2151 TS 35 7 306
1876231N14303 1876 13 NA NA NOT_NAMED 1876-08-22 12:00:00 TS 21.0000 -75.5000 main 10 0 _____________O -1 21.0000 -75.5000 TS 35 6 308
1876231N14303 1876 13 NA NA NOT_NAMED 1876-08-22 15:00:00 TS 21.1999 -75.7576 main 22 22 _____________P -1 21.1999 -75.7576 TS 35 6 311
1876231N14303 1876 13 NA NA NOT_NAMED 1876-08-22 18:00:00 TS 21.4000 -76.0000 main 30 24 _____________O -1 21.4000 -76.0000 TS 35 6 311
1876231N14303 1876 13 NA NA NOT_NAMED 1876-08-22 21:00:00 TS 21.6000 -76.2501 main 44 44 _____________P -1 21.6000 -76.2501 TS 35 6 311
1876231N14303 1876 13 NA NA NOT_NAMED 1876-08-23 00:00:00 TS 21.8000 -76.5000 main 59 46 _____________O -1 21.8000 -76.5000 TS 35 6 311
1876231N14303 1876 13 NA NA NOT_NAMED 1876-08-23 03:00:00 TS 22.0075 -76.7500 main 45 45 _____________P -1 22.0075 -76.7500 TS 35 6 311
1876231N14303 1876 13 NA NA NOT_NAMED 1876-08-23 06:00:00 TS 22.2000 -77.0000 main 56 55 _____________O -1 22.2000 -77.0000 TS 35 6 306
1876231N14303 1876 13 NA NA NOT_NAMED 1876-08-23 09:00:00 TS 22.3500 -77.2576 main 67 67 _____________P -1 22.3500 -77.2576 TS 35 6 303
1876231N14303 1876 13 NA NA NOT_NAMED 1876-08-23 12:00:00 TS 22.5000 -77.5000 main 73 69 _____________O -1 22.5000 -77.5000 TS 35 5 310
1876231N14303 1876 13 NA NA NOT_NAMED 1876-08-23 15:00:00 TS 22.6924 -77.7076 main 84 76 _____________P -1 22.6924 -77.7076 TS 35 5 317
1876231N14303 1876 13 NA NA NOT_NAMED 1876-08-23 18:00:00 TS 22.9000 -77.9000 main 84 84 _____________O -1 22.9000 -77.9000 TS 35 5 318
1876231N14303 1876 13 NA NA NOT_NAMED 1876-08-23 21:00:00 TS 23.1000 -78.1001 main 94 94 _____________P -1 23.1000 -78.1001 TS 35 5 318
1876231N14303 1876 13 NA NA NOT_NAMED 1876-08-24 00:00:00 TS 23.3000 -78.3000 main 105 93 _____________O -1 23.3000 -78.3000 TS 35 6 318
1876231N14303 1876 13 NA NA NOT_NAMED 1876-08-24 03:00:00 TS 23.5075 -78.5075 main 93 90 _____________P -1 23.5075 -78.5075 TS 35 5 318
1876231N14303 1876 13 NA NA NOT_NAMED 1876-08-24 06:00:00 TS 23.7000 -78.7000 main 90 82 _____________O -1 23.7000 -78.7000 TS 35 5 322
1876231N14303 1876 13 NA NA NOT_NAMED 1876-08-24 09:00:00 TS 23.8949 -78.8425 main 82 78 _____________P -1 23.8949 -78.8425 TS 35 4 318
1876231N14303 1876 13 NA NA NOT_NAMED 1876-08-24 12:00:00 TS 24.0000 -79.0000 main 84 84 _____________O -1 24.0000 -79.0000 TS 35 4 276
1876231N14303 1876 13 NA NA NOT_NAMED 1876-08-24 15:00:00 TS 23.9300 -79.2352 main 105 105 _____________P -1 23.9300 -79.2352 TS 35 5 246
1876231N14303 1876 13 NA NA NOT_NAMED 1876-08-24 18:00:00 TS 23.8000 -79.5000 main 112 94 _____________O -1 23.8000 -79.5000 TS 35 5 248
1876231N14303 1876 13 NA NA NOT_NAMED 1876-08-24 21:00:00 TS 23.7425 -79.7499 main 94 89 _____________P -1 23.7425 -79.7499 TS 32 5 258
1876231N14303 1876 13 NA NA NOT_NAMED 1876-08-25 00:00:00 TS 23.7000 -80.0000 main 89 84 _____________O -1 23.7000 -80.0000 TD 30 5 259
1876231N14303 1876 13 NA NA NOT_NAMED 1876-08-25 03:00:00 TS 23.6500 -80.2500 main 73 67 _____________P -1 23.6500 -80.2500 TD 30 5 258
1876231N14303 1876 13 NA NA NOT_NAMED 1876-08-25 06:00:00 TS 23.6000 -80.5000 main 67 67 _____________O -1 23.6000 -80.5000 TD 30 5 258
1876231N14303 1876 13 NA NA NOT_NAMED 1876-08-25 09:00:00 TS 23.5501 -80.7500 main 67 54 _____________P -1 23.5501 -80.7500 TD 27 5 258
1876231N14303 1876 13 NA NA NOT_NAMED 1876-08-25 12:00:00 ET 23.5000 -81.0000 main 54 _____________O -1 23.5000 -81.0000 EX 25 5 258

IBTrACS Databaseについて

本データベースは、米国NOAAが公開する1842年以降の世界の熱帯低気圧のベストトラックデータアーカイブInternational Best Track Archive for Climate Stewardship (IBTrACS)を、ウェブで閲覧しやすい形式に変換したものです。

最終更新日:2021-10-21